Time;durP1;ratioP1;P1;durP2;ratioP2;P2;SDS_P1;SDS_P2;PMS_P1;PMS_P2;Temp;Humidity;BMP_temperature;BMP_pressure;BME280_temperature;BME280_humidity;BME280_pressure;Samples;Min_cycle;Max_cycle;Signal;HPM_P1;HPM_P2
2021/12/13 00:00:11;;;;;;;;;;;1.40;89.40;;;;;;5054769;28;20449;-67
2021/12/13 00:02:47;;;;;;;;;;;1.40;89.30;;;;;;5054761;28;19944;-67
2021/12/13 00:05:19;;;;;;;;;;;1.50;89.20;;;;;;5054723;28;19944;-67
2021/12/13 00:07:51;;;;;;;;;;;1.50;89.60;;;;;;5054634;28;19941;-67
2021/12/13 00:10:18;;;;;;;;;;;1.50;89.50;;;;;;5054357;28;19975;-67
2021/12/13 00:12:46;;;;;;;;;;;1.50;89.40;;;;;;5054543;28;19964;-67
2021/12/13 00:15:26;;;;;;;;;;;1.40;88.90;;;;;;5054434;28;20068;-67
2021/12/13 00:17:53;;;;;;;;;;;1.20;88.60;;;;;;5054732;28;19943;-67
2021/12/13 00:20:27;;;;;;;;;;;1.00;89.20;;;;;;5054415;28;19944;-67
2021/12/13 00:22:55;;;;;;;;;;;1.00;89.40;;;;;;5036452;28;19981;-67
2021/12/13 00:25:25;;;;;;;;;;;1.00;89.80;;;;;;5036311;28;19945;-67
2021/12/13 00:28:04;;;;;;;;;;;1.10;90.20;;;;;;5054171;28;19945;-67
2021/12/13 00:30:30;;;;;;;;;;;1.20;90.60;;;;;;5054167;28;19943;-66
2021/12/13 00:33:14;;;;;;;;;;;1.30;90.90;;;;;;5054128;28;19972;-66
2021/12/13 00:35:48;;;;;;;;;;;1.40;90.80;;;;;;5054044;28;19970;-66
2021/12/13 00:38:15;;;;;;;;;;;1.30;90.50;;;;;;5054027;28;20394;-66
2021/12/13 00:40:47;;;;;;;;;;;1.40;90.40;;;;;;5053793;28;19944;-66
2021/12/13 00:43:28;;;;;;;;;;;1.40;90.30;;;;;;5053943;28;19946;-66
2021/12/13 00:45:55;;;;;;;;;;;1.40;90.30;;;;;;5053783;28;19940;-66
2021/12/13 00:48:23;;;;;;;;;;;1.50;90.20;;;;;;5053882;28;19936;-66
2021/12/13 00:50:49;;;;;;;;;;;1.70;89.70;;;;;;5053806;28;19946;-66
2021/12/13 00:53:18;;;;;;;;;;;1.60;89.30;;;;;;5053666;28;19942;-66
2021/12/13 00:55:44;;;;;;;;;;;1.50;89.40;;;;;;5035787;28;20291;-66
2021/12/13 00:58:11;;;;;;;;;;;1.60;89.50;;;;;;5053688;28;19986;-66
2021/12/13 01:00:43;;;;;;;;;;;1.70;89.00;;;;;;5053684;28;20017;-66
2021/12/13 01:03:16;;;;;;;;;;;1.90;88.60;;;;;;5053855;28;19950;-66
2021/12/13 01:05:42;;;;;;;;;;;1.90;88.40;;;;;;5053873;28;19944;-66
2021/12/13 01:08:08;;;;;;;;;;;1.70;87.90;;;;;;5053440;28;19943;-66
2021/12/13 01:10:42;;;;;;;;;;;1.50;88.80;;;;;;5053305;28;19979;-66
2021/12/13 01:13:16;;;;;;;;;;;1.60;88.80;;;;;;5053312;28;19942;-66
2021/12/13 01:15:50;;;;;;;;;;;1.60;88.50;;;;;;5053402;28;19937;-66
2021/12/13 01:18:29;;;;;;;;;;;1.40;88.30;;;;;;5053394;28;20020;-66
2021/12/13 01:21:40;;;;;;;;;;;1.30;89.00;;;;;;5053330;28;19938;-67
2021/12/13 01:23:52;;;;;;;;;;;1.30;89.20;;;;;;5050041;28;19952;-67
2021/12/13 01:28:50;;;;;;;;;;;1.70;88.20;;;;;;5053225;28;19948;-67
2021/12/13 01:31:21;;;;;;;;;;;1.90;87.30;;;;;;5035289;28;19951;-67
2021/12/13 01:33:47;;;;;;;;;;;1.90;86.90;;;;;;5053067;28;20006;-67
2021/12/13 01:36:18;;;;;;;;;;;1.90;86.80;;;;;;5053039;28;19959;-67
2021/12/13 01:38:46;;;;;;;;;;;1.90;86.80;;;;;;5035225;28;20151;-67
2021/12/13 01:41:16;;;;;;;;;;;1.70;86.60;;;;;;5053081;28;19943;-67
2021/12/13 01:43:44;;;;;;;;;;;1.50;86.90;;;;;;5053062;28;19944;-67
2021/12/13 01:46:10;;;;;;;;;;;1.50;87.20;;;;;;5053003;28;20026;-67
2021/12/13 01:48:38;;;;;;;;;;;1.50;87.50;;;;;;5053006;28;19985;-67
2021/12/13 01:51:08;;;;;;;;;;;1.60;87.60;;;;;;5052998;28;19949;-67
2021/12/13 01:53:36;;;;;;;;;;;1.50;87.40;;;;;;5054452;28;19956;-67
2021/12/13 01:56:10;;;;;;;;;;;1.50;87.60;;;;;;5057113;28;20309;-67
2021/12/13 01:58:41;;;;;;;;;;;1.40;88.00;;;;;;5057057;28;19946;-67
2021/12/13 02:01:09;;;;;;;;;;;1.40;88.40;;;;;;5056999;28;20073;-67
2021/12/13 02:03:47;;;;;;;;;;;1.40;88.50;;;;;;5056972;28;19952;-67
2021/12/13 02:06:20;;;;;;;;;;;1.40;88.80;;;;;;5056953;28;19940;-67
2021/12/13 02:08:50;;;;;;;;;;;1.50;88.90;;;;;;5056792;28;19969;-67
2021/12/13 02:11:16;;;;;;;;;;;1.60;88.90;;;;;;5056664;28;19981;-67
2021/12/13 02:14:03;;;;;;;;;;;1.70;88.50;;;;;;5056682;28;19972;-67
2021/12/13 02:19:19;;;;;;;;;;;1.40;87.80;;;;;;5056662;28;19950;-67
2021/12/13 02:21:49;;;;;;;;;;;1.20;88.30;;;;;;5056649;28;20000;-67
2021/12/13 02:24:14;;;;;;;;;;;1.20;88.80;;;;;;5056589;28;19951;-67
2021/12/13 02:26:46;;;;;;;;;;;1.20;89.00;;;;;;5056393;28;19949;-67
2021/12/13 02:29:21;;;;;;;;;;;1.30;89.00;;;;;;5056425;28;19970;-67
2021/12/13 02:31:47;;;;;;;;;;;1.40;88.90;;;;;;5056441;28;19942;-67
2021/12/13 02:34:14;;;;;;;;;;;1.40;88.80;;;;;;5056598;28;19976;-67
2021/12/13 02:36:41;;;;;;;;;;;1.50;88.90;;;;;;5038429;28;19941;-67
2021/12/13 02:39:09;;;;;;;;;;;1.50;89.20;;;;;;5056318;28;19967;-67
2021/12/13 02:41:36;;;;;;;;;;;1.60;89.10;;;;;;5056226;28;19947;-67
2021/12/13 02:44:11;;;;;;;;;;;1.60;89.70;;;;;;5056269;28;19936;-67
2021/12/13 02:46:37;;;;;;;;;;;1.70;89.90;;;;;;5056224;28;19934;-67
2021/12/13 02:49:05;;;;;;;;;;;1.70;90.00;;;;;;5056175;28;20030;-67
2021/12/13 02:51:36;;;;;;;;;;;1.90;90.00;;;;;;5056402;28;19949;-67
2021/12/13 02:54:19;;;;;;;;;;;2.00;89.80;;;;;;5056007;28;19963;-67
2021/12/13 02:56:53;;;;;;;;;;;2.10;89.10;;;;;;5056023;28;19941;-67
2021/12/13 02:59:20;;;;;;;;;;;2.00;87.80;;;;;;5055941;28;20023;-67
2021/12/13 03:01:55;;;;;;;;;;;2.00;87.60;;;;;;5055894;28;19947;-67
2021/12/13 03:04:22;;;;;;;;;;;2.00;87.60;;;;;;5055711;28;19946;-67
2021/12/13 03:06:59;;;;;;;;;;;2.00;87.40;;;;;;5055783;28;19940;-67
2021/12/13 03:09:26;;;;;;;;;;;1.90;87.20;;;;;;5055689;28;19954;-67
2021/12/13 03:11:53;;;;;;;;;;;2.00;87.00;;;;;;5055450;28;19982;-67
2021/12/13 03:14:22;;;;;;;;;;;2.00;86.40;;;;;;5055590;28;19962;-67
2021/12/13 03:16:50;;;;;;;;;;;2.10;86.30;;;;;;5055610;28;20017;-67
2021/12/13 03:19:34;;;;;;;;;;;2.10;86.10;;;;;;5055590;28;20509;-67
2021/12/13 03:22:03;;;;;;;;;;;2.20;86.30;;;;;;5055569;28;20101;-67
2021/12/13 03:24:34;;;;;;;;;;;2.20;86.10;;;;;;5055462;28;19942;-67
2021/12/13 03:27:09;;;;;;;;;;;2.20;85.90;;;;;;5055340;28;19955;-67
2021/12/13 03:29:34;;;;;;;;;;;2.00;86.00;;;;;;5055389;28;19960;-67
2021/12/13 03:32:00;;;;;;;;;;;1.80;86.20;;;;;;5055310;28;20307;-67
2021/12/13 03:34:30;;;;;;;;;;;1.50;87.00;;;;;;5055265;28;19959;-67
2021/12/13 03:36:58;;;;;;;;;;;1.50;87.50;;;;;;5055238;28;19960;-67
2021/12/13 03:39:27;;;;;;;;;;;1.50;87.70;;;;;;5055213;28;19994;-67
2021/12/13 03:41:54;;;;;;;;;;;1.50;87.80;;;;;;5055174;28;19979;-67
2021/12/13 03:44:23;;;;;;;;;;;1.50;88.20;;;;;;5055054;28;19937;-67
2021/12/13 03:46:49;;;;;;;;;;;1.50;88.20;;;;;;5055047;28;19943;-66
2021/12/13 03:49:17;;;;;;;;;;;1.40;88.50;;;;;;5055035;28;20426;-67
2021/12/13 03:51:43;;;;;;;;;;;1.30;89.60;;;;;;5054924;28;20342;-67
2021/12/13 03:54:10;;;;;;;;;;;1.40;90.10;;;;;;5054823;28;19959;-67
2021/12/13 03:56:42;;;;;;;;;;;1.40;90.20;;;;;;5054855;28;20398;-67
2021/12/13 03:59:10;;;;;;;;;;;1.50;90.70;;;;;;5054816;28;19990;-67
2021/12/13 04:01:40;;;;;;;;;;;1.60;90.70;;;;;;5054780;28;19983;-67
2021/12/13 04:04:09;;;;;;;;;;;1.70;90.70;;;;;;5054746;28;19948;-67
2021/12/13 04:06:42;;;;;;;;;;;1.80;90.70;;;;;;5054709;28;19945;-67
2021/12/13 04:09:08;;;;;;;;;;;1.90;90.60;;;;;;5054550;28;20023;-67
2021/12/13 04:11:33;;;;;;;;;;;2.10;90.20;;;;;;5054429;28;20448;-67
2021/12/13 04:14:07;;;;;;;;;;;2.20;89.80;;;;;;5054681;28;19965;-67
2021/12/13 04:16:47;;;;;;;;;;;2.40;88.80;;;;;;5053931;28;20457;-67
2021/12/13 04:19:15;;;;;;;;;;;2.40;87.80;;;;;;5054411;28;19963;-67
2021/12/13 04:21:44;;;;;;;;;;;2.20;87.00;;;;;;5054362;28;19937;-67
2021/12/13 04:24:13;;;;;;;;;;;2.00;87.10;;;;;;5036435;28;19945;-67
2021/12/13 04:26:59;;;;;;;;;;;2.00;87.10;;;;;;5054120;28;19943;-67
2021/12/13 04:29:27;;;;;;;;;;;2.00;86.90;;;;;;5053097;28;19948;-67
2021/12/13 04:31:53;;;;;;;;;;;2.00;86.90;;;;;;5054149;28;19936;-67
2021/12/13 04:34:21;;;;;;;;;;;2.00;86.90;;;;;;5035817;28;19960;-67
2021/12/13 04:36:48;;;;;;;;;;;2.00;86.80;;;;;;5036388;28;19948;-67
2021/12/13 04:39:18;;;;;;;;;;;1.90;86.80;;;;;;5053562;28;19965;-67
2021/12/13 04:41:50;;;;;;;;;;;1.90;87.20;;;;;;5053931;28;19941;-67
2021/12/13 04:44:18;;;;;;;;;;;1.90;87.10;;;;;;5053722;28;19948;-67
2021/12/13 04:46:44;;;;;;;;;;;1.80;87.10;;;;;;5053883;28;19944;-67
2021/12/13 04:49:11;;;;;;;;;;;1.70;87.40;;;;;;5053894;28;19937;-67
2021/12/13 04:51:40;;;;;;;;;;;1.70;87.80;;;;;;5053759;28;20410;-67
2021/12/13 04:54:06;;;;;;;;;;;1.70;88.00;;;;;;5053681;28;20411;-67
2021/12/13 04:56:32;;;;;;;;;;;1.50;88.40;;;;;;5053728;28;19941;-67
2021/12/13 04:58:59;;;;;;;;;;;1.50;88.50;;;;;;5053670;28;20418;-67
2021/12/13 05:01:25;;;;;;;;;;;1.50;88.40;;;;;;5035786;28;20424;-67
2021/12/13 05:03:55;;;;;;;;;;;1.40;88.50;;;;;;5053583;28;20074;-67
2021/12/13 05:06:23;;;;;;;;;;;1.50;89.10;;;;;;5053536;28;19940;-67
2021/12/13 05:08:53;;;;;;;;;;;1.60;89.00;;;;;;5053436;28;20494;-67
2021/12/13 05:11:19;;;;;;;;;;;1.70;88.70;;;;;;5060537;22;20000;-67
2021/12/13 05:13:50;;;;;;;;;;;1.70;88.60;;;;;;5053378;28;19967;-67
2021/12/13 05:16:17;;;;;;;;;;;1.80;88.60;;;;;;5053714;28;19954;-67
2021/12/13 05:18:45;;;;;;;;;;;1.90;88.50;;;;;;5053379;28;19952;-66
2021/12/13 05:21:12;;;;;;;;;;;1.80;87.90;;;;;;5052034;28;19945;-66
2021/12/13 05:24:07;;;;;;;;;;;1.80;87.90;;;;;;5053279;28;19966;-66
2021/12/13 05:26:33;;;;;;;;;;;1.70;87.60;;;;;;5052142;28;20046;-66
2021/12/13 05:29:00;;;;;;;;;;;1.60;87.70;;;;;;5052323;28;19983;-66
2021/12/13 05:31:26;;;;;;;;;;;1.50;87.60;;;;;;5051685;28;19946;-66
2021/12/13 05:33:53;;;;;;;;;;;1.50;87.90;;;;;;5052979;28;20369;-66
2021/12/13 05:36:21;;;;;;;;;;;1.50;88.00;;;;;;5053058;28;20029;-66
2021/12/13 05:38:50;;;;;;;;;;;1.50;87.60;;;;;;5052916;28;20342;-66
2021/12/13 05:41:23;;;;;;;;;;;1.50;87.70;;;;;;5052820;28;19952;-66
2021/12/13 05:43:53;;;;;;;;;;;1.50;87.70;;;;;;5052999;28;19982;-66
2021/12/13 05:46:23;;;;;;;;;;;1.50;87.60;;;;;;5051717;28;19938;-66
2021/12/13 05:48:56;;;;;;;;;;;1.50;87.60;;;;;;5052862;28;19987;-66
2021/12/13 05:51:31;;;;;;;;;;;1.50;87.60;;;;;;5055057;28;19947;-66
2021/12/13 05:54:00;;;;;;;;;;;1.40;87.80;;;;;;5056157;28;20363;-66
2021/12/13 05:56:27;;;;;;;;;;;1.40;88.20;;;;;;5052180;28;19953;-66
2021/12/13 05:58:54;;;;;;;;;;;1.50;88.30;;;;;;5059248;28;19946;-66
2021/12/13 06:01:20;;;;;;;;;;;1.60;88.40;;;;;;5068312;28;19954;-66
2021/12/13 06:03:54;;;;;;;;;;;1.70;88.20;;;;;;5062973;28;19952;-66
2021/12/13 06:06:22;;;;;;;;;;;1.70;88.00;;;;;;5055974;28;19943;-66
2021/12/13 06:08:49;;;;;;;;;;;1.50;88.00;;;;;;5052595;28;19958;-66
2021/12/13 06:11:32;;;;;;;;;;;1.50;88.10;;;;;;5052557;28;19973;-66
2021/12/13 06:14:00;;;;;;;;;;;1.40;88.50;;;;;;5051868;28;19956;-66
2021/12/13 06:16:25;;;;;;;;;;;1.50;88.30;;;;;;5041043;28;20309;-66
2021/12/13 06:19:02;;;;;;;;;;;1.40;88.10;;;;;;5042350;28;20056;-66
2021/12/13 06:21:54;;;;;;;;;;;1.40;88.70;;;;;;5039618;28;19947;-66
2021/12/13 06:24:27;;;;;;;;;;;1.40;88.70;;;;;;5032793;28;19948;-66
2021/12/13 06:27:25;;;;;;;;;;;1.40;88.20;;;;;;5039717;28;20315;-66
2021/12/13 06:29:52;;;;;;;;;;;1.40;88.10;;;;;;5016725;28;19953;-66
2021/12/13 06:32:47;;;;;;;;;;;1.20;88.50;;;;;;5040141;28;19943;-66
2021/12/13 06:35:48;;;;;;;;;;;1.10;88.70;;;;;;5039322;28;19970;-66
2021/12/13 06:38:19;;;;;;;;;;;1.00;89.10;;;;;;4984638;28;19993;-66
2021/12/13 06:40:57;;;;;;;;;;;1.00;89.40;;;;;;5034140;28;19952;-66
2021/12/13 06:43:33;;;;;;;;;;;1.00;89.80;;;;;;5057413;28;19958;-66
2021/12/13 06:46:00;;;;;;;;;;;1.10;89.80;;;;;;5049806;28;20408;-66
2021/12/13 06:48:58;;;;;;;;;;;1.30;90.00;;;;;;5053704;28;20532;-66
2021/12/13 06:51:43;;;;;;;;;;;1.40;89.90;;;;;;5051120;28;19953;-67
2021/12/13 06:54:28;;;;;;;;;;;1.40;88.60;;;;;;5049247;28;19960;-66
2021/12/13 06:56:56;;;;;;;;;;;1.60;88.40;;;;;;5053776;28;20415;-66
2021/12/13 06:59:23;;;;;;;;;;;1.50;88.70;;;;;;5061266;28;19954;-66
2021/12/13 07:02:01;;;;;;;;;;;1.50;88.50;;;;;;5055277;28;19986;-66
2021/12/13 07:04:35;;;;;;;;;;;1.50;88.50;;;;;;5056878;28;19958;-66
2021/12/13 07:07:08;;;;;;;;;;;1.50;88.40;;;;;;5050633;28;19987;-67
2021/12/13 07:09:36;;;;;;;;;;;1.40;88.40;;;;;;5056045;28;19962;-67
2021/12/13 07:12:10;;;;;;;;;;;1.40;88.20;;;;;;5057995;28;19972;-67
2021/12/13 07:14:38;;;;;;;;;;;1.30;88.20;;;;;;5052788;28;19959;-67
2021/12/13 07:17:22;;;;;;;;;;;1.20;89.50;;;;;;5056040;28;19950;-66
2021/12/13 07:19:49;;;;;;;;;;;1.30;89.70;;;;;;5053532;28;20044;-67
2021/12/13 07:22:20;;;;;;;;;;;1.40;90.00;;;;;;5049463;28;20333;-67
2021/12/13 07:24:48;;;;;;;;;;;1.60;90.10;;;;;;5053611;28;20701;-66
2021/12/13 07:27:34;;;;;;;;;;;1.80;90.10;;;;;;5054975;28;19944;-67
2021/12/13 07:30:05;;;;;;;;;;;2.00;89.90;;;;;;5055026;28;19948;-66
2021/12/13 07:32:36;;;;;;;;;;;2.20;89.50;;;;;;5055276;28;20440;-66
2021/12/13 07:35:01;;;;;;;;;;;2.40;88.60;;;;;;5056777;28;19972;-66
2021/12/13 07:37:36;;;;;;;;;;;2.40;88.00;;;;;;5056367;28;20097;-66
2021/12/13 07:40:20;;;;;;;;;;;2.40;86.80;;;;;;5052723;28;20112;-66
2021/12/13 07:43:09;;;;;;;;;;;2.20;86.90;;;;;;5054030;28;20435;-66
2021/12/13 07:45:39;;;;;;;;;;;2.30;86.90;;;;;;5051181;28;19950;-66
2021/12/13 07:48:07;;;;;;;;;;;2.30;86.70;;;;;;5058697;28;19946;-67
2021/12/13 07:50:34;;;;;;;;;;;2.40;86.90;;;;;;5055130;28;20019;-67
2021/12/13 07:53:02;;;;;;;;;;;2.30;87.00;;;;;;5065349;28;20414;-67
2021/12/13 07:55:28;;;;;;;;;;;2.30;87.40;;;;;;5051001;28;20477;-67
2021/12/13 07:57:55;;;;;;;;;;;2.40;87.40;;;;;;5050881;28;20403;-66
2021/12/13 08:00:30;;;;;;;;;;;2.40;87.50;;;;;;5061434;28;19956;-67
2021/12/13 08:02:58;;;;;;;;;;;2.40;88.00;;;;;;5050199;28;19944;-66
2021/12/13 08:05:29;;;;;;;;;;;2.50;88.40;;;;;;5047870;28;19951;-66
2021/12/13 08:07:59;;;;;;;;;;;2.50;88.60;;;;;;5053531;28;20054;-66
2021/12/13 08:10:28;;;;;;;;;;;2.70;88.70;;;;;;5050051;28;20062;-66
2021/12/13 08:13:01;;;;;;;;;;;2.80;88.30;;;;;;5052689;28;19950;-66
2021/12/13 08:15:29;;;;;;;;;;;2.90;88.40;;;;;;5044792;28;20065;-66
2021/12/13 08:18:00;;;;;;;;;;;3.10;88.30;;;;;;5048579;28;19957;-66
2021/12/13 08:20:27;;;;;;;;;;;3.30;85.90;;;;;;5048587;28;20369;-66
2021/12/13 08:22:54;;;;;;;;;;;3.40;83.60;;;;;;5047589;28;19943;-66
2021/12/13 08:25:21;;;;;;;;;;;3.50;85.20;;;;;;5048559;28;19954;-66
2021/12/13 08:27:49;;;;;;;;;;;3.60;85.00;;;;;;5049070;28;19960;-66
2021/12/13 08:30:26;;;;;;;;;;;3.80;84.10;;;;;;5044363;28;19953;-67
2021/12/13 08:33:10;;;;;;;;;;;3.90;83.10;;;;;;5043185;28;19948;-66
2021/12/13 08:35:45;;;;;;;;;;;3.90;82.20;;;;;;5043357;28;19965;-66
2021/12/13 08:38:11;;;;;;;;;;;4.00;83.30;;;;;;5042070;28;19977;-66
2021/12/13 08:40:36;;;;;;;;;;;4.10;83.40;;;;;;5044082;28;19984;-66
2021/12/13 08:43:02;;;;;;;;;;;4.20;80.70;;;;;;5045648;28;19944;-66
2021/12/13 08:45:35;;;;;;;;;;;4.30;80.70;;;;;;5051369;28;19947;-66
2021/12/13 08:48:04;;;;;;;;;;;4.40;81.90;;;;;;5049807;28;20003;-67
2021/12/13 08:50:35;;;;;;;;;;;4.70;82.50;;;;;;5046712;28;20264;-67
2021/12/13 08:53:09;;;;;;;;;;;4.90;80.60;;;;;;5045693;28;19955;-66
2021/12/13 08:55:37;;;;;;;;;;;5.00;80.60;;;;;;5047386;28;19950;-67
2021/12/13 08:58:17;;;;;;;;;;;5.20;81.60;;;;;;5046065;28;19950;-66
2021/12/13 09:00:48;;;;;;;;;;;5.30;80.00;;;;;;5046112;28;19938;-66
2021/12/13 09:03:14;;;;;;;;;;;5.40;79.50;;;;;;5048566;28;19941;-66
2021/12/13 09:05:50;;;;;;;;;;;5.50;79.10;;;;;;5046283;28;19996;-66
2021/12/13 09:08:17;;;;;;;;;;;5.60;78.40;;;;;;5048281;28;19950;-66
2021/12/13 09:10:53;;;;;;;;;;;5.70;74.00;;;;;;5050548;28;20040;-66
2021/12/13 09:13:32;;;;;;;;;;;5.80;75.70;;;;;;5045754;28;19945;-66
2021/12/13 09:15:58;;;;;;;;;;;6.00;73.40;;;;;;5042984;28;19953;-66
2021/12/13 09:18:23;;;;;;;;;;;6.00;73.20;;;;;;5050120;28;20082;-67
2021/12/13 09:20:52;;;;;;;;;;;6.10;74.70;;;;;;5045657;28;20030;-67
2021/12/13 09:23:20;;;;;;;;;;;6.10;73.70;;;;;;5044072;28;19953;-67
2021/12/13 09:25:47;;;;;;;;;;;6.20;74.70;;;;;;5039376;28;19950;-67
2021/12/13 09:28:13;;;;;;;;;;;6.30;72.90;;;;;;5039868;28;20045;-67
2021/12/13 09:30:41;;;;;;;;;;;6.40;71.80;;;;;;5047176;28;20030;-66
2021/12/13 09:33:13;;;;;;;;;;;6.50;72.30;;;;;;5045498;28;19966;-66
2021/12/13 09:35:44;;;;;;;;;;;6.60;71.90;;;;;;5044816;28;20061;-67
2021/12/13 09:38:28;;;;;;;;;;;6.80;71.90;;;;;;5048876;28;19957;-66
2021/12/13 09:40:59;;;;;;;;;;;6.90;71.60;;;;;;5039859;28;20447;-66
2021/12/13 09:43:34;;;;;;;;;;;6.90;70.10;;;;;;5046600;28;19956;-67
2021/12/13 09:46:00;;;;;;;;;;;7.00;70.00;;;;;;5047670;28;19964;-67
2021/12/13 09:48:30;;;;;;;;;;;7.10;69.40;;;;;;5049664;28;20386;-67
2021/12/13 09:50:58;;;;;;;;;;;7.10;69.30;;;;;;5042035;28;20158;-66
2021/12/13 09:53:26;;;;;;;;;;;7.20;69.50;;;;;;5041353;28;19951;-67
2021/12/13 09:55:52;;;;;;;;;;;7.20;67.90;;;;;;5044797;28;19949;-67
2021/12/13 09:58:20;;;;;;;;;;;7.20;67.30;;;;;;5041469;28;19943;-67
2021/12/13 10:00:56;;;;;;;;;;;7.40;67.20;;;;;;5043436;28;20322;-67
2021/12/13 10:03:24;;;;;;;;;;;7.40;66.80;;;;;;5043782;28;19950;-67
2021/12/13 10:05:53;;;;;;;;;;;7.40;66.80;;;;;;5046431;28;19962;-66
2021/12/13 10:08:20;;;;;;;;;;;7.50;66.20;;;;;;5041112;28;19952;-67
2021/12/13 10:10:52;;;;;;;;;;;7.60;66.70;;;;;;5041966;28;19979;-66
2021/12/13 10:13:21;;;;;;;;;;;7.80;65.60;;;;;;5038298;28;19949;-66
2021/12/13 10:15:50;;;;;;;;;;;7.90;65.40;;;;;;5044542;28;20113;-66
2021/12/13 10:18:18;;;;;;;;;;;8.00;65.70;;;;;;5048242;28;19996;-66
2021/12/13 10:20:46;;;;;;;;;;;8.10;65.30;;;;;;5046548;28;19949;-66
2021/12/13 10:23:13;;;;;;;;;;;8.40;64.30;;;;;;5051440;28;19966;-66
2021/12/13 10:25:41;;;;;;;;;;;8.40;63.70;;;;;;5049579;28;19945;-66
2021/12/13 10:28:09;;;;;;;;;;;8.50;62.20;;;;;;5045892;28;20110;-66
2021/12/13 10:30:37;;;;;;;;;;;8.70;61.40;;;;;;5035622;28;19945;-66
2021/12/13 10:33:04;;;;;;;;;;;8.60;59.80;;;;;;5041314;28;19964;-67
2021/12/13 10:35:37;;;;;;;;;;;8.70;59.50;;;;;;5037994;28;19987;-66
2021/12/13 10:38:06;;;;;;;;;;;8.80;60.40;;;;;;5043977;28;19956;-66
2021/12/13 10:40:34;;;;;;;;;;;8.90;58.90;;;;;;5047639;28;19946;-66
2021/12/13 10:43:02;;;;;;;;;;;8.90;58.20;;;;;;5044621;28;20003;-66
2021/12/13 10:45:30;;;;;;;;;;;9.00;57.30;;;;;;5052297;28;19950;-66
2021/12/13 10:47:57;;;;;;;;;;;9.10;59.80;;;;;;5055226;28;19968;-66
2021/12/13 10:50:25;;;;;;;;;;;9.30;58.60;;;;;;5047502;28;19945;-66
2021/12/13 10:52:53;;;;;;;;;;;9.20;57.20;;;;;;5046364;28;20057;-66
2021/12/13 10:55:22;;;;;;;;;;;9.30;57.50;;;;;;5056109;28;20348;-66
2021/12/13 10:57:48;;;;;;;;;;;9.40;56.40;;;;;;5063085;28;20055;-67
2021/12/13 11:00:43;;;;;;;;;;;9.60;58.10;;;;;;5045568;28;19959;-66
2021/12/13 11:03:10;;;;;;;;;;;9.80;56.50;;;;;;5034212;28;19945;-66
2021/12/13 11:05:37;;;;;;;;;;;9.90;55.30;;;;;;5049546;28;19966;-66
2021/12/13 11:08:05;;;;;;;;;;;9.90;54.90;;;;;;5031750;28;19960;-67
2021/12/13 11:10:36;;;;;;;;;;;9.90;56.60;;;;;;5037198;28;19981;-67
2021/12/13 11:13:02;;;;;;;;;;;10.00;56.70;;;;;;5038402;28;19948;-66
2021/12/13 11:15:31;;;;;;;;;;;10.10;56.40;;;;;;5035959;28;20027;-66
2021/12/13 11:17:58;;;;;;;;;;;10.10;56.90;;;;;;5036617;28;19949;-66
2021/12/13 11:20:36;;;;;;;;;;;10.10;55.20;;;;;;5046391;28;19942;-66
2021/12/13 11:23:03;;;;;;;;;;;10.20;55.20;;;;;;5051165;28;19961;-66
2021/12/13 11:25:31;;;;;;;;;;;10.30;55.70;;;;;;5039630;28;19942;-67
2021/12/13 11:27:57;;;;;;;;;;;10.40;53.90;;;;;;5036002;28;19986;-67
2021/12/13 11:30:24;;;;;;;;;;;10.70;52.20;;;;;;5048929;28;19971;-67
2021/12/13 11:32:56;;;;;;;;;;;10.80;52.60;;;;;;5047524;28;19952;-67
2021/12/13 11:35:41;;;;;;;;;;;11.10;52.00;;;;;;5039751;28;19969;-67
2021/12/13 11:38:29;;;;;;;;;;;11.40;50.20;;;;;;5051216;28;19945;-67
2021/12/13 11:40:58;;;;;;;;;;;11.80;49.80;;;;;;5054605;28;19950;-67
2021/12/13 11:43:40;;;;;;;;;;;12.40;49.30;;;;;;5054064;28;19949;-67
2021/12/13 11:46:06;;;;;;;;;;;12.90;47.50;;;;;;5053034;28;20271;-67
2021/12/13 11:48:50;;;;;;;;;;;13.30;46.70;;;;;;5053955;28;20387;-67
2021/12/13 11:51:27;;;;;;;;;;;13.80;43.30;;;;;;5054921;28;19947;-67
2021/12/13 11:54:12;;;;;;;;;;;14.20;41.50;;;;;;5054416;28;20007;-67
2021/12/13 11:56:50;;;;;;;;;;;14.80;42.60;;;;;;5052257;28;20042;-67
2021/12/13 11:59:34;;;;;;;;;;;15.10;40.40;;;;;;5053008;28;19956;-67
2021/12/13 12:02:19;;;;;;;;;;;15.60;40.30;;;;;;5054625;28;20318;-67
2021/12/13 12:05:05;;;;;;;;;;;16.10;38.70;;;;;;5053450;28;20292;-67
2021/12/13 12:07:36;;;;;;;;;;;16.30;37.50;;;;;;5054342;28;19995;-67
2021/12/13 12:10:02;;;;;;;;;;;16.10;36.90;;;;;;5052533;28;19938;-67
2021/12/13 12:12:46;;;;;;;;;;;15.70;39.30;;;;;;5054487;28;20003;-67
2021/12/13 12:15:12;;;;;;;;;;;15.80;36.90;;;;;;5051743;28;20428;-67
2021/12/13 12:17:38;;;;;;;;;;;16.00;37.20;;;;;;5054264;28;19985;-67
2021/12/13 12:20:06;;;;;;;;;;;16.30;37.20;;;;;;5053634;28;19989;-67
2021/12/13 12:22:50;;;;;;;;;;;16.30;35.80;;;;;;5053028;28;20135;-67
2021/12/13 12:25:16;;;;;;;;;;;15.30;38.80;;;;;;5052811;28;19940;-67
2021/12/13 12:27:42;;;;;;;;;;;14.70;38.90;;;;;;5053856;28;19948;-67
2021/12/13 12:30:13;;;;;;;;;;;13.90;38.90;;;;;;5048062;28;19954;-67
2021/12/13 12:32:41;;;;;;;;;;;13.00;41.40;;;;;;5040247;28;19952;-66
2021/12/13 12:35:15;;;;;;;;;;;12.40;43.50;;;;;;5043327;28;20412;-66
2021/12/13 12:37:56;;;;;;;;;;;12.30;43.70;;;;;;5044499;28;19945;-67
2021/12/13 12:40:22;;;;;;;;;;;12.50;43.10;;;;;;5047173;28;19979;-66
2021/12/13 12:42:49;;;;;;;;;;;12.70;42.80;;;;;;5053574;28;19957;-66
2021/12/13 12:45:14;;;;;;;;;;;12.80;42.90;;;;;;5042147;28;20329;-66
2021/12/13 12:47:46;;;;;;;;;;;12.90;43.30;;;;;;5041842;28;19962;-67
2021/12/13 12:50:17;;;;;;;;;;;12.90;43.10;;;;;;5044297;28;19946;-67
2021/12/13 12:52:50;;;;;;;;;;;13.40;43.10;;;;;;5043030;28;19945;-66
2021/12/13 12:55:18;;;;;;;;;;;14.00;41.60;;;;;;5034359;28;19960;-67
2021/12/13 12:57:43;;;;;;;;;;;14.70;40.10;;;;;;5051788;28;19963;-67
2021/12/13 13:00:09;;;;;;;;;;;15.40;38.60;;;;;;5053774;28;20408;-67
2021/12/13 13:02:35;;;;;;;;;;;15.50;37.70;;;;;;5038923;28;20433;-67
2021/12/13 13:05:05;;;;;;;;;;;15.90;36.90;;;;;;5052991;28;20068;-67
2021/12/13 13:07:33;;;;;;;;;;;16.40;35.80;;;;;;5057627;28;19987;-66
2021/12/13 13:10:19;;;;;;;;;;;16.20;36.20;;;;;;5052513;23;20404;-67
2021/12/13 13:12:44;;;;;;;;;;;15.90;37.30;;;;;;5081659;28;19936;-68
2021/12/13 13:15:30;;;;;;;;;;;16.50;36.60;;;;;;5096715;28;20053;-67
2021/12/13 13:18:08;;;;;;;;;;;16.40;36.40;;;;;;5067011;28;22108;-67
2021/12/13 13:20:38;;;;;;;;;;;15.40;38.10;;;;;;5079058;28;20286;-67
2021/12/13 13:23:04;;;;;;;;;;;14.40;39.80;;;;;;5085870;28;19987;-67
2021/12/13 13:25:40;;;;;;;;;;;14.30;41.20;;;;;;5076667;28;20529;-67
2021/12/13 13:28:14;;;;;;;;;;;14.10;42.00;;;;;;5086960;28;20032;-67
2021/12/13 13:30:45;;;;;;;;;;;14.30;42.00;;;;;;5092098;28;19947;-67
2021/12/13 13:33:11;;;;;;;;;;;14.60;41.30;;;;;;5091237;28;19957;-67
2021/12/13 13:35:37;;;;;;;;;;;14.70;41.40;;;;;;5090331;28;20158;-65
2021/12/13 13:38:12;;;;;;;;;;;14.80;42.20;;;;;;5089574;28;20401;-65
2021/12/13 13:40:38;;;;;;;;;;;15.00;43.00;;;;;;5090473;28;20310;-65
2021/12/13 13:43:06;;;;;;;;;;;15.30;43.00;;;;;;5092241;28;20016;-66
2021/12/13 13:45:34;;;;;;;;;;;15.40;40.70;;;;;;5090734;28;19952;-68
2021/12/13 13:48:02;;;;;;;;;;;15.70;40.00;;;;;;5090062;28;20394;-67
2021/12/13 13:50:35;;;;;;;;;;;15.50;39.70;;;;;;5088325;28;20393;-65
2021/12/13 13:53:14;;;;;;;;;;;15.30;40.30;;;;;;5088635;28;19969;-65
2021/12/13 13:55:47;;;;;;;;;;;14.90;40.60;;;;;;5078159;28;20403;-65
2021/12/13 13:58:36;;;;;;;;;;;14.60;41.10;;;;;;5094910;28;19946;-65
2021/12/13 14:01:01;;;;;;;;;;;14.50;42.00;;;;;;5087194;28;19948;-65
2021/12/13 14:03:36;;;;;;;;;;;14.60;42.30;;;;;;5089213;28;19966;-65
2021/12/13 14:06:03;;;;;;;;;;;14.80;41.80;;;;;;5087038;28;19943;-65
2021/12/13 14:08:29;;;;;;;;;;;14.60;42.10;;;;;;5089946;28;19961;-65
2021/12/13 14:10:56;;;;;;;;;;;14.90;41.70;;;;;;5090869;28;20031;-65
2021/12/13 14:13:22;;;;;;;;;;;15.30;41.40;;;;;;5090803;28;19962;-65
2021/12/13 14:15:51;;;;;;;;;;;15.40;41.80;;;;;;5086874;28;20027;-65
2021/12/13 14:18:24;;;;;;;;;;;15.30;42.00;;;;;;5088082;28;19993;-65
2021/12/13 14:20:55;;;;;;;;;;;15.00;41.90;;;;;;5091354;28;19949;-65
2021/12/13 14:23:23;;;;;;;;;;;14.40;43.30;;;;;;5087398;28;19944;-65
2021/12/13 14:25:57;;;;;;;;;;;12.90;47.50;;;;;;5090993;28;19954;-65
2021/12/13 14:28:22;;;;;;;;;;;12.70;50.60;;;;;;5089530;28;19941;-65
2021/12/13 14:30:50;;;;;;;;;;;12.40;51.60;;;;;;5091122;28;19954;-65
2021/12/13 14:33:25;;;;;;;;;;;12.10;50.60;;;;;;5090298;28;20330;-65
2021/12/13 14:35:59;;;;;;;;;;;11.80;49.80;;;;;;5086744;28;20116;-65
2021/12/13 14:38:26;;;;;;;;;;;11.60;50.40;;;;;;5090082;28;19955;-65
2021/12/13 14:40:53;;;;;;;;;;;11.50;49.50;;;;;;5089932;28;19953;-65
2021/12/13 14:43:20;;;;;;;;;;;12.10;50.00;;;;;;5090836;28;20003;-65
2021/12/13 14:45:46;;;;;;;;;;;12.70;47.20;;;;;;5090565;28;20293;-65
2021/12/13 14:48:15;;;;;;;;;;;13.00;50.10;;;;;;5089964;28;20051;-65
2021/12/13 14:50:46;;;;;;;;;;;13.20;50.80;;;;;;5092323;28;19949;-65
2021/12/13 14:53:19;;;;;;;;;;;13.60;50.10;;;;;;5090469;28;19943;-65